Omaha — WDC9423 — position and weather

sailwx.info

Track history (hours):
 
Tides and Currents Weather Stations Pressure Air Temp Water Temp Dewpoint Dewpoint Depression Visibility Wind Speed Wind Dir Waves Ship Positions

Omaha

Owner: Turn services, Inc, New Orleans, LA. More information available from US FCC via Universal Licensing System and Coast Guard Vessel Documentation Center.

Last reported at 2015-Jan-29 07:29 UTC. Time now 2015-Jan-29 08:22 UTC.
Position N 29°56' W 089°59'.

Length 13 m; draft 3.5 m.

Type: Pilot. MMSI: 367102030.

Date/timePositionNaut miles runAvg speedWind from/ knotsBaromVisibWave heightAir tempDewpointWater temp
2015-Jan-29 07:29N 29°56' W 089°59'2 2.1
2015-Jan-29 06:30N 29°55' W 089°56'1 0.2
2015-Jan-29 03:28N 29°55' W 089°56'0 0.1
2015-Jan-29 02:33N 29°55' W 089°56'0 0.0
2015-Jan-28 19:06N 29°55' W 089°56'2 0.5
2015-Jan-28 15:06N 29°55' W 089°58'1 1.3
2015-Jan-28 14:06N 29°55' W 089°57'0 0.0
2015-Jan-28 13:31N 29°55' W 089°57'1 0.3
2015-Jan-28 11:31N 29°55' W 089°56'2 0.7
2015-Jan-28 09:06N 29°55' W 089°58'1 1.2
2015-Jan-28 08:06N 29°55' W 089°57'4 0.3
2015-Jan-27 20:30N 29°57' W 090°01'2 1.6
2015-Jan-27 19:33N 29°56' W 089°59'0 0.4
2015-Jan-27 18:32N 29°56' W 089°59'2 1.0
2015-Jan-27 16:27N 29°55' W 089°57'1 0.2
2015-Jan-27 12:30N 29°55' W 089°56'4 0.5
2015-Jan-27 03:32N 29°57' W 090°00'4 3.8
2015-Jan-27 02:33N 29°55' W 089°56'0 0.2
2015-Jan-27 00:22N 29°55' W 089°56'1 0.7
2015-Jan-26 23:17N 29°55' W 089°56'0 0.3
2015-Jan-26 22:09N 29°55' W 089°56'2 0.9
2015-Jan-26 19:29N 29°56' W 089°59'2 2.4
2015-Jan-26 18:32N 29°55' W 089°56'0 0.1
2015-Jan-26 17:07N 29°55' W 089°56'0 0.0
2015-Jan-25 21:18N 29°55' W 089°56'1 0.5
2015-Jan-25 20:05N 29°55' W 089°57'1 0.4
2015-Jan-25 18:14N 29°55' W 089°56'0 0.0
2015-Jan-25 16:25N 29°55' W 089°56'0 0.0
2015-Jan-25 15:18N 29°55' W 089°56'0 0.0
2015-Jan-25 14:20N 29°55' W 089°56'0 0.0
2015-Jan-25 13:27N 29°55' W 089°56'0 0.0
2015-Jan-25 12:32N 29°55' W 089°56'1 0.1
2015-Jan-24 23:07N 29°55' W 089°56'0 0.2
2015-Jan-24 21:31N 29°55' W 089°56'0 0.0
2015-Jan-24 18:33N 29°55' W 089°56'0 0.4
2015-Jan-24 17:28N 29°55' W 089°56'0 0.1
2015-Jan-24 16:19N 29°55' W 089°56'0 0.0
2015-Jan-24 15:32N 29°55' W 089°56'0 0.1
2015-Jan-24 13:11N 29°55' W 089°56'0 0.1
2015-Jan-24 12:31N 29°55' W 089°56'0 0.0
2015-Jan-24 11:31N 29°55' W 089°56'3 0.9
2015-Jan-24 08:28N 29°56' W 089°59'2 2.0
2015-Jan-24 07:29N 29°55' W 089°57'0 0.1
2015-Jan-24 06:33N 29°55' W 089°56'4 1.8
2015-Jan-24 04:25N 29°57' W 090°00'  
2015-Jan-20 12:27N 29°55' W 089°56'0 0.0
2015-Jan-20 11:32N 29°55' W 089°56'0 0.2
2015-Jan-20 10:09N 29°55' W 089°56'0 0.3
2015-Jan-20 09:33N 29°55' W 089°56'1 0.9
2015-Jan-20 08:32N 29°55' W 089°57'1 0.4
2015-Jan-20 07:08N 29°55' W 089°56'0 0.7
2015-Jan-20 06:27N 29°55' W 089°57'0 0.4
2015-Jan-20 05:31N 29°55' W 089°57'1 1.0
2015-Jan-20 04:22N 29°55' W 089°56'1 0.7
2015-Jan-20 03:08N 29°55' W 089°57'0 0.2
2015-Jan-20 02:27N 29°55' W 089°57'1 0.0
2015-Jan-19 11:11N 29°55' W 089°56'0 0.0
2015-Jan-19 08:07N 29°55' W 089°56'  
Track history (hours):
 
Tides and Currents Weather Stations Pressure Air Temp Water Temp Dewpoint Dewpoint Depression Visibility Wind Speed Wind Dir Waves Ship Positions

Omaha

Owner: Turn services, Inc, New Orleans, LA. More information available from US FCC via Universal Licensing System and Coast Guard Vessel Documentation Center.

Last reported at 2015-Jan-29 07:29 UTC. Time now 2015-Jan-29 08:22 UTC.
Position N 29°56' W 089°59'.

Length 13 m; draft 3.5 m.

Type: Pilot. MMSI: 367102030.

Date/timePositionNaut miles runAvg speedWind from/ knotsBaromVisibWave heightAir tempDewpointWater temp
2015-Jan-29 07:29N 29°56' W 089°59'2 2.1
2015-Jan-29 06:30N 29°55' W 089°56'1 0.2
2015-Jan-29 03:28N 29°55' W 089°56'0 0.1
2015-Jan-29 02:33N 29°55' W 089°56'0 0.0
2015-Jan-28 19:06N 29°55' W 089°56'2 0.5
2015-Jan-28 15:06N 29°55' W 089°58'1 1.3
2015-Jan-28 14:06N 29°55' W 089°57'0 0.0
2015-Jan-28 13:31N 29°55' W 089°57'1 0.3
2015-Jan-28 11:31N 29°55' W 089°56'2 0.7
2015-Jan-28 09:06N 29°55' W 089°58'1 1.2
2015-Jan-28 08:06N 29°55' W 089°57'4 0.3
2015-Jan-27 20:30N 29°57' W 090°01'2 1.6
2015-Jan-27 19:33N 29°56' W 089°59'0 0.4
2015-Jan-27 18:32N 29°56' W 089°59'2 1.0
2015-Jan-27 16:27N 29°55' W 089°57'1 0.2
2015-Jan-27 12:30N 29°55' W 089°56'4 0.5
2015-Jan-27 03:32N 29°57' W 090°00'4 3.8
2015-Jan-27 02:33N 29°55' W 089°56'0 0.2
2015-Jan-27 00:22N 29°55' W 089°56'1 0.7
2015-Jan-26 23:17N 29°55' W 089°56'0 0.3
2015-Jan-26 22:09N 29°55' W 089°56'2 0.9
2015-Jan-26 19:29N 29°56' W 089°59'2 2.4
2015-Jan-26 18:32N 29°55' W 089°56'0 0.1
2015-Jan-26 17:07N 29°55' W 089°56'0 0.0
2015-Jan-25 21:18N 29°55' W 089°56'1 0.5
2015-Jan-25 20:05N 29°55' W 089°57'1 0.4
2015-Jan-25 18:14N 29°55' W 089°56'0 0.0
2015-Jan-25 16:25N 29°55' W 089°56'0 0.0
2015-Jan-25 15:18N 29°55' W 089°56'0 0.0
2015-Jan-25 14:20N 29°55' W 089°56'0 0.0
2015-Jan-25 13:27N 29°55' W 089°56'0 0.0
2015-Jan-25 12:32N 29°55' W 089°56'1 0.1
2015-Jan-24 23:07N 29°55' W 089°56'0 0.2
2015-Jan-24 21:31N 29°55' W 089°56'0 0.0
2015-Jan-24 18:33N 29°55' W 089°56'0 0.4
2015-Jan-24 17:28N 29°55' W 089°56'0 0.1
2015-Jan-24 16:19N 29°55' W 089°56'0 0.0
2015-Jan-24 15:32N 29°55' W 089°56'0 0.1
2015-Jan-24 13:11N 29°55' W 089°56'0 0.1
2015-Jan-24 12:31N 29°55' W 089°56'0 0.0
2015-Jan-24 11:31N 29°55' W 089°56'3 0.9
2015-Jan-24 08:28N 29°56' W 089°59'2 2.0
2015-Jan-24 07:29N 29°55' W 089°57'0 0.1
2015-Jan-24 06:33N 29°55' W 089°56'4 1.8
2015-Jan-24 04:25N 29°57' W 090°00'  
2015-Jan-20 12:27N 29°55' W 089°56'0 0.0
2015-Jan-20 11:32N 29°55' W 089°56'0 0.2
2015-Jan-20 10:09N 29°55' W 089°56'0 0.3
2015-Jan-20 09:33N 29°55' W 089°56'1 0.9
2015-Jan-20 08:32N 29°55' W 089°57'1 0.4
2015-Jan-20 07:08N 29°55' W 089°56'0 0.7
2015-Jan-20 06:27N 29°55' W 089°57'0 0.4
2015-Jan-20 05:31N 29°55' W 089°57'1 1.0
2015-Jan-20 04:22N 29°55' W 089°56'1 0.7
2015-Jan-20 03:08N 29°55' W 089°57'0 0.2
2015-Jan-20 02:27N 29°55' W 089°57'1 0.0
2015-Jan-19 11:11N 29°55' W 089°56'0 0.0
2015-Jan-19 08:07N 29°55' W 089°56'  

Dump ship's entire track history